Aérodrome :
LOGIN :

S'inscrire | Disclaimer

   EN    FR    IT 

 










Légende :    VFR   VFR Marginal   IFR   IFR Intensif   IFR Très Intensif
Visi : 
Plafond : 
>= 8 km
>= 3000ft
5 à 8 km
1000 à 3000 ft
1500m à 5 km
500 à 1000 ft
800 à 1500m
200 à 500 ft
< 800m
< 200 ft
Symboles :   Orages  Brouillard  Fortes neiges  Fortes précipitations  Vent > 20 kt
SIGMETs :   Divers  Orages  Givrage  Turbulence  Onde Orograph.  Cendres Volcan.







- Altitude de l'aérodrome : 681 ft
- Code IATA : LBA
- Voir les cartes d'approche


EGNM - Leeds Bradford

DERNIER METAR :
  • 161650Z 19010KT 150V230 9999 FEW043 18/10 Q1013

METARs EXPIRÉS :
  • 161620Z 19011KT 150V240 9999 FEW042 18/10 Q1013
  • 161550Z 18010KT 140V220 9999 FEW010 SCT041 18/10 Q1014
  • 161520Z 19012KT 150V230 9999 SCT038 18/10 Q1014
  • 161450Z 20012KT 150V240 9999 SCT038 18/10 Q1014
  • 161420Z 19011KT 150V220 9999 SCT038 19/10 Q1015

TAF TAF EGNM
Valide du 16 à 12h jusqu'au 17 à 12h UTC


161059Z 1612/1712 20010KT 9999 FEW030
TEMPO 1618/1621 7000 -RA
BECMG 1621/1624 7000 -RA BKN012
TEMPO 1621/1705 3000 +RA BKN006
BECMG 1703/1706 26007KT
BECMG 1706/1709 9999 NSW SCT020
ATIS : +44 113 250 9696 (x2489)
Pas de NOTAMs connus pour ce terrain.



MET'MAP, la Météo Aéronautique d'un coup d'oeil ! - Copyright ORBIFLY Décembre 2007 - Disclaimer

ORBIFLY MET'MAP TEAM :

Programmation & Développement : Alexandra Zaïnal
Conception & Développement : Baudouin d'Aumeries
Co-Programmation & Développement : Marc-Olivier Méhu
Soutien technique & logistique : Manuel Goepfert

Contact : metmap@orbifly.com




SOURCES & CREDITS :

   NOAA